MSC Melatilde — 3FYE4 — position and weather

sailwx.info

Track history (hours):
 
Tides and Currents Weather Stations Pressure Air Temp Water Temp Dewpoint Dewpoint Depression Visibility Wind Speed Wind Dir Waves Ship Positions

MSC Melatilde

Last reported at 2018-Jun-24 11:01 UTC. Time now 2018-Jun-25 00:44 UTC.
Position N 30°37' E 122°04'.

Length 365 m; draft 10.5 m.

Type: Ship. MMSI: 357240000.

Date/timePositionNaut miles runAvg speedWind from/ knotsBaromVisibWave heightAir tempDewpointWater temp
2018-Jun-24 11:01N 30°37' E 122°04'0 3.1
2018-Jun-24 10:58N 30°37' E 122°04'  
2018-Jun-20 05:49N 24°27' E 119°09'1511.9
2018-Jun-20 04:32N 24°18' E 118°57'412.1
2018-Jun-20 04:13N 24°15' E 118°53'311.8
2018-Jun-20 03:58N 24°13' E 118°51'511.5
2018-Jun-20 03:30N 24°10' E 118°47'611.4
2018-Jun-20 03:00N 24°07' E 118°41'611.5
2018-Jun-20 02:30N 24°03' E 118°36'511.1
2018-Jun-20 02:01N 23°59' E 118°32'815.7
2018-Jun-20 01:31N 23°54' E 118°25'1712.1
2018-Jun-20 00:07N 23°44' E 118°11'111.2
2018-Jun-20 00:00N 23°43' E 118°10'1011.1
2018-Jun-19 23:08N 23°37' E 118°02'210.9
2018-Jun-19 22:57N 23°36' E 117°60'511.0
2018-Jun-19 22:30N 23°33' E 117°55'611.3
2018-Jun-19 22:00N 23°31' E 117°50'611.3
2018-Jun-19 21:30N 23°27' E 117°45'611.6
2018-Jun-19 21:00N 23°22' E 117°41'612.0
2018-Jun-19 20:30N 23°19' E 117°36'712.7
2018-Jun-19 19:59N 23°15' E 117°30'713.3
2018-Jun-19 19:27N 23°10' E 117°25'1013.1
2018-Jun-19 18:42N 23°03' E 117°17'  
Track history (hours):
 
Tides and Currents Weather Stations Pressure Air Temp Water Temp Dewpoint Dewpoint Depression Visibility Wind Speed Wind Dir Waves Ship Positions

MSC Melatilde

Last reported at 2018-Jun-24 11:01 UTC. Time now 2018-Jun-25 00:44 UTC.
Position N 30°37' E 122°04'.

Length 365 m; draft 10.5 m.

Type: Ship. MMSI: 357240000.

Date/timePositionNaut miles runAvg speedWind from/ knotsBaromVisibWave heightAir tempDewpointWater temp
2018-Jun-24 11:01N 30°37' E 122°04'0 3.1
2018-Jun-24 10:58N 30°37' E 122°04'  
2018-Jun-20 05:49N 24°27' E 119°09'1511.9
2018-Jun-20 04:32N 24°18' E 118°57'412.1
2018-Jun-20 04:13N 24°15' E 118°53'311.8
2018-Jun-20 03:58N 24°13' E 118°51'511.5
2018-Jun-20 03:30N 24°10' E 118°47'611.4
2018-Jun-20 03:00N 24°07' E 118°41'611.5
2018-Jun-20 02:30N 24°03' E 118°36'511.1
2018-Jun-20 02:01N 23°59' E 118°32'815.7
2018-Jun-20 01:31N 23°54' E 118°25'1712.1
2018-Jun-20 00:07N 23°44' E 118°11'111.2
2018-Jun-20 00:00N 23°43' E 118°10'1011.1
2018-Jun-19 23:08N 23°37' E 118°02'210.9
2018-Jun-19 22:57N 23°36' E 117°60'511.0
2018-Jun-19 22:30N 23°33' E 117°55'611.3
2018-Jun-19 22:00N 23°31' E 117°50'611.3
2018-Jun-19 21:30N 23°27' E 117°45'611.6
2018-Jun-19 21:00N 23°22' E 117°41'612.0
2018-Jun-19 20:30N 23°19' E 117°36'712.7
2018-Jun-19 19:59N 23°15' E 117°30'713.3
2018-Jun-19 19:27N 23°10' E 117°25'1013.1
2018-Jun-19 18:42N 23°03' E 117°17'  

Dump ship's entire track history